createdAt,value
2023-03-03T01:35:54.000Z,84.92
2023-03-03T02:58:33.242Z,86.10
2023-03-03T04:39:19.033Z,85.06
2023-03-03T04:48:18.843Z,83.11
2023-03-03T05:48:38.319Z,82.39
2023-03-03T08:35:10.080Z,79.72
2023-03-03T08:49:09.905Z,78.40
2023-03-03T09:18:56.382Z,75.60
2023-03-03T10:49:15.479Z,74.60
2023-03-03T11:29:15.052Z,68.40
2023-03-03T12:17:34.591Z,63.29
2023-03-03T12:38:34.393Z,63.41
2023-03-03T13:16:52.982Z,49.59
2023-03-03T13:17:52.718Z,50.84
2023-03-03T13:18:52.712Z,53.21
2023-03-03T13:19:52.706Z,53.25
2023-03-03T13:20:52.725Z,54.28
2023-03-03T13:21:52.679Z,57.33
2023-03-03T13:26:52.627Z,58.53
2023-03-03T13:27:52.606Z,57.65
2023-03-03T13:31:52.698Z,55.63
2023-03-03T13:32:52.563Z,55.23
2023-03-03T13:33:52.539Z,55.25
2023-03-03T13:41:52.457Z,51.76
2023-03-03T13:48:52.379Z,54.46
2023-03-03T13:49:52.363Z,54.43
2023-03-03T13:50:52.353Z,56.09
2023-03-03T13:51:52.345Z,54.71
2023-03-03T13:52:52.356Z,54.35
2023-03-03T13:53:52.324Z,54.61
2023-03-03T13:54:52.312Z,55.32
2023-03-03T13:57:52.281Z,56.94
2023-03-03T13:58:52.274Z,57.65
2023-03-03T13:59:52.255Z,58.63
2023-03-03T14:00:52.296Z,57.81
2023-03-03T14:01:52.231Z,58.28
2023-03-03T14:02:52.219Z,59.07
2023-03-03T14:04:52.202Z,59.17
2023-03-03T14:05:52.394Z,58.30
2023-03-03T14:06:52.198Z,57.45
2023-03-03T14:09:52.148Z,57.45
2023-03-03T14:10:52.135Z,57.69
2023-03-03T14:11:52.130Z,57.56
2023-03-03T14:13:52.105Z,59.22
2023-03-03T14:14:52.098Z,59.55
2023-03-03T14:15:52.085Z,59.19
2023-03-03T14:16:52.184Z,57.22
2023-03-03T14:18:52.057Z,59.05
2023-03-03T14:21:52.023Z,57.48
2023-03-03T14:23:52.011Z,58.20
2023-03-03T14:24:52.008Z,57.58
2023-03-03T14:26:51.970Z,57.76
2023-03-03T14:27:51.961Z,57.73
2023-03-03T14:29:51.930Z,57.86
2023-03-03T14:34:52.053Z,59.48
2023-03-03T14:36:51.856Z,61.93
2023-03-03T14:37:51.871Z,62.31
2023-03-03T14:38:52.037Z,61.09
2023-03-03T14:39:51.857Z,59.97
2023-03-03T14:40:51.832Z,59.22
2023-03-03T14:41:52.834Z,59.79
2023-03-03T14:42:51.788Z,60.74
2023-03-03T14:43:51.781Z,60.33
2023-03-03T14:44:51.886Z,60.51
2023-03-03T14:47:51.736Z,60.30
2023-03-03T14:48:51.738Z,58.81
2023-03-03T14:49:51.720Z,58.50
2023-03-03T14:50:51.702Z,58.68
2023-03-03T14:52:51.696Z,57.25
2023-03-03T14:53:51.671Z,56.09
2023-03-03T14:55:51.690Z,55.07
2023-03-03T14:56:51.703Z,54.69
2023-03-03T14:57:51.667Z,55.25
2023-03-03T14:58:51.658Z,56.50
2023-03-03T14:59:51.645Z,57.04
2023-03-03T15:00:51.640Z,58.63
2023-03-03T15:02:51.612Z,56.81
2023-03-03T15:03:51.602Z,56.50
2023-03-03T15:04:51.626Z,56.40
2023-03-03T15:05:51.581Z,56.68
2023-03-03T15:06:51.573Z,55.96
2023-03-03T15:07:51.594Z,55.74
2023-03-03T15:08:51.550Z,55.30
2023-03-03T15:10:51.531Z,53.90
2023-03-03T15:11:51.522Z,53.54
2023-03-03T15:12:51.529Z,52.62
2023-03-03T15:13:51.498Z,53.51
2023-03-03T15:14:51.487Z,56.65
2023-03-03T15:15:51.522Z,55.74
2023-03-03T15:16:51.461Z,55.32
2023-03-03T15:17:51.456Z,55.40
2023-03-03T15:19:51.431Z,55.84
2023-03-03T15:20:51.419Z,55.87
2023-03-03T15:21:51.421Z,57.09
2023-03-03T15:22:51.393Z,57.53
2023-03-03T15:23:51.387Z,57.27
2023-03-03T15:24:51.383Z,56.70
2023-03-03T15:25:54.352Z,55.25
2023-03-03T15:26:51.396Z,54.54
2023-03-03T15:27:51.399Z,54.66
2023-03-03T15:28:51.351Z,54.33
2023-03-03T15:29:51.322Z,54.51
2023-03-03T15:30:51.331Z,54.84
2023-03-03T15:31:51.315Z,55.32
2023-03-03T15:32:51.442Z,54.41
2023-03-03T15:39:51.209Z,60.20
2023-03-03T15:40:51.253Z,59.97
2023-03-03T15:42:51.186Z,60.17
2023-03-03T15:44:51.336Z,59.32
2023-03-03T15:45:51.142Z,58.99
2023-03-03T15:46:51.195Z,59.53
2023-03-03T15:47:51.140Z,59.46
2023-03-03T15:48:51.118Z,59.83
2023-03-03T15:49:51.201Z,59.53
2023-03-03T15:52:02.822Z,60.43
2023-03-03T15:52:51.069Z,61.26
2023-03-03T15:53:51.055Z,62.07
2023-03-03T15:54:51.046Z,61.87
2023-03-03T15:55:51.086Z,61.26
2023-03-03T15:56:51.076Z,61.02
2023-03-03T15:58:51.000Z,60.27
2023-03-03T15:59:50.956Z,60.82
2023-03-03T16:00:50.939Z,61.66
2023-03-03T16:03:50.876Z,62.51
2023-03-03T16:04:50.870Z,62.41
2023-03-03T16:05:50.852Z,62.92
2023-03-03T16:06:50.846Z,62.69
2023-03-03T16:08:50.842Z,62.31
2023-03-03T16:09:50.807Z,62.31
2023-03-03T16:13:50.764Z,62.39
2023-03-03T16:14:50.804Z,62.00
2023-03-03T16:17:44.169Z,62.85
2023-03-03T16:18:44.096Z,63.26
2023-03-03T16:20:44.073Z,62.85
2023-03-03T16:21:44.065Z,62.75
2023-03-03T16:22:44.057Z,63.39
2023-03-03T16:23:44.045Z,63.16
2023-03-03T16:24:44.029Z,62.88
2023-03-03T16:28:17.885Z,62.03
2023-03-03T16:29:17.871Z,62.75
2023-03-03T16:30:17.864Z,61.90
2023-03-03T16:31:17.888Z,61.79
2023-03-03T16:34:17.830Z,61.38
2023-03-03T16:35:17.976Z,62.44
2023-03-03T16:36:17.828Z,62.00
2023-03-03T16:37:17.787Z,62.23
2023-03-03T16:38:17.774Z,62.57
2023-03-03T16:39:17.765Z,62.78
2023-03-03T16:40:17.764Z,63.12
2023-03-03T16:41:17.743Z,63.29
2023-03-03T16:42:17.731Z,62.65
2023-03-03T16:43:17.725Z,62.47
2023-03-03T16:44:17.710Z,62.88
2023-03-03T16:45:17.725Z,63.19
2023-03-03T16:46:17.689Z,62.98
2023-03-03T16:47:17.689Z,63.42
2023-03-03T16:48:17.672Z,63.83
2023-03-03T16:49:17.679Z,63.94
2023-03-03T16:50:17.647Z,63.60
2023-03-03T16:51:17.639Z,63.39
2023-03-03T16:52:17.628Z,63.32
2023-03-03T16:54:17.606Z,64.76
2023-03-03T17:01:17.657Z,65.03
2023-03-03T17:02:17.528Z,65.00
2023-03-03T17:03:17.533Z,64.58
2023-03-03T17:05:17.505Z,65.78
2023-03-03T17:06:17.472Z,65.88
2023-03-03T17:07:17.463Z,65.78
2023-03-03T17:08:17.456Z,66.74
2023-03-03T17:09:30.308Z,66.74
2023-03-03T17:10:18.457Z,66.43
2023-03-03T17:11:17.423Z,66.63
2023-03-03T17:12:17.405Z,66.35
2023-03-03T17:13:17.398Z,66.25
2023-03-03T17:14:17.424Z,66.59
2023-03-03T17:15:17.378Z,67.10
2023-03-03T17:16:17.391Z,67.24
2023-03-03T17:18:17.339Z,68.30
2023-03-03T17:19:17.332Z,68.02
2023-03-03T17:20:17.322Z,68.02
2023-03-03T17:21:17.331Z,69.40
2023-03-03T17:22:17.296Z,69.92
2023-03-03T17:23:17.286Z,70.22
2023-03-03T17:24:17.273Z,70.77
2023-03-03T17:25:17.267Z,71.08
2023-03-03T17:26:17.256Z,70.47
2023-03-03T17:27:17.242Z,70.39
2023-03-03T17:28:17.233Z,70.50
2023-03-03T17:29:17.226Z,70.53
2023-03-03T17:30:17.207Z,71.25
2023-03-03T17:32:17.201Z,72.53
2023-03-03T17:33:17.181Z,73.04
2023-03-03T17:34:17.177Z,73.46
2023-03-03T17:35:17.172Z,73.66
2023-03-03T17:36:18.404Z,73.60
2023-03-03T17:37:17.163Z,73.49
2023-03-03T17:43:17.076Z,75.39
2023-03-03T17:44:17.064Z,74.87
2023-03-03T17:45:17.052Z,74.98
2023-03-03T17:46:17.097Z,76.01
2023-03-03T17:47:17.033Z,76.12
2023-03-03T17:49:17.010Z,75.70
2023-03-03T17:50:16.999Z,75.56
2023-03-03T17:51:16.999Z,75.36
2023-03-03T17:52:16.978Z,74.73
2023-03-03T17:53:16.995Z,74.63
2023-03-03T17:54:19.105Z,74.73
2023-03-03T17:55:16.954Z,74.42
2023-03-03T17:56:16.939Z,74.73
2023-03-03T17:57:16.928Z,74.73
2023-03-03T18:00:19.203Z,73.66
2023-03-03T18:01:16.889Z,74.91
2023-03-03T18:03:16.926Z,74.25
2023-03-03T18:04:16.883Z,74.12
2023-03-03T18:05:16.849Z,74.22
2023-03-03T18:06:16.835Z,73.84
2023-03-03T18:07:16.825Z,74.04
2023-03-03T18:08:16.811Z,74.22
2023-03-03T18:12:16.768Z,75.73
2023-03-03T18:13:16.764Z,75.53
2023-03-03T18:14:16.779Z,75.18
2023-03-03T18:15:16.740Z,74.56
2023-03-03T18:16:19.135Z,73.84
2023-03-03T18:17:16.721Z,73.46
2023-03-03T18:18:16.708Z,73.66
2023-03-03T18:19:16.696Z,73.56
2023-03-03T18:26:16.619Z,72.46
2023-03-03T18:30:16.573Z,72.88
2023-03-03T18:31:16.629Z,72.15
2023-03-03T18:35:16.595Z,72.22
2023-03-03T18:36:16.512Z,71.60
2023-03-03T18:37:16.499Z,71.40
2023-03-03T18:38:16.487Z,71.40
2023-03-03T18:39:16.479Z,71.19
2023-03-03T18:40:16.467Z,71.09
2023-03-03T18:41:16.475Z,70.88
2023-03-03T18:42:16.444Z,71.60
2023-03-03T18:43:16.439Z,71.81
2023-03-03T18:44:16.426Z,72.98
2023-03-03T18:45:16.413Z,74.94
2023-03-03T18:46:16.605Z,75.18
2023-03-03T18:47:16.388Z,76.42
2023-03-03T18:48:16.376Z,75.08
2023-03-03T18:49:16.366Z,74.91
2023-03-03T18:50:16.355Z,73.84
2023-03-03T18:51:16.349Z,72.33
2023-03-03T18:54:16.313Z,70.71
2023-03-03T18:56:16.292Z,70.61
2023-03-03T18:59:16.260Z,70.27
2023-03-03T19:00:16.249Z,70.47
2023-03-03T19:01:16.263Z,70.78
2023-03-03T19:02:16.230Z,70.78
2023-03-03T19:03:16.212Z,71.20
2023-03-03T19:05:16.238Z,71.44
2023-03-03T19:06:16.182Z,71.50
2023-03-03T19:11:16.128Z,70.61
2023-03-03T19:12:16.115Z,70.51
2023-03-03T19:14:16.092Z,70.17
2023-03-03T19:15:16.082Z,69.99
2023-03-03T19:16:16.090Z,70.41
2023-03-03T19:17:16.064Z,70.09
2023-03-03T19:18:16.052Z,70.20
2023-03-03T19:19:16.043Z,71.06
2023-03-03T19:20:16.027Z,71.02
2023-03-03T19:23:15.995Z,70.75
2023-03-03T19:24:15.982Z,71.06
2023-03-03T19:25:15.986Z,71.26
2023-03-03T19:26:15.961Z,70.92
2023-03-03T19:27:15.952Z,71.13
2023-03-03T19:28:15.951Z,71.23
2023-03-03T19:29:15.961Z,71.33
2023-03-03T19:30:15.918Z,71.95
2023-03-03T19:31:15.941Z,71.64
2023-03-03T19:32:15.950Z,71.44
2023-03-03T19:33:15.888Z,71.23
2023-03-03T19:34:15.879Z,71.13
2023-03-03T19:35:15.867Z,71.44
2023-03-03T19:36:15.864Z,71.54
2023-03-03T19:37:15.845Z,71.44
2023-03-03T19:40:15.814Z,71.02
2023-03-03T19:41:15.803Z,70.89
2023-03-03T19:42:15.792Z,70.92
2023-03-03T19:43:15.791Z,71.02
2023-03-03T19:44:15.772Z,71.33
2023-03-03T19:47:15.738Z,72.26
2023-03-03T19:48:15.729Z,72.16
2023-03-03T19:49:15.718Z,72.05
2023-03-03T19:54:15.663Z,71.74
2023-03-03T19:55:15.662Z,71.64
2023-03-03T19:56:15.641Z,71.64
2023-03-03T19:58:15.641Z,71.33
2023-03-03T19:59:15.610Z,71.54
2023-03-03T20:00:15.600Z,71.33
2023-03-03T20:01:15.609Z,71.74
2023-03-03T20:05:15.548Z,72.02
2023-03-03T20:06:17.163Z,71.50
2023-03-03T20:07:15.525Z,71.50
2023-03-03T20:08:15.512Z,71.33
2023-03-03T20:09:15.502Z,71.44
2023-03-03T20:12:15.474Z,71.74
2023-03-03T20:13:15.458Z,71.85
2023-03-03T20:14:15.446Z,71.54
2023-03-03T20:16:15.558Z,71.44
2023-03-03T20:19:15.394Z,72.26
2023-03-03T20:20:15.382Z,72.16
2023-03-03T20:21:15.388Z,71.95
2023-03-03T20:22:15.363Z,71.74
2023-03-03T20:23:15.353Z,71.74
2023-03-03T20:24:15.339Z,71.61
2023-03-03T20:26:15.317Z,71.64
2023-03-03T20:27:15.321Z,71.85
2023-03-03T20:28:17.450Z,71.57
2023-03-03T20:29:15.289Z,72.71
2023-03-03T20:30:15.285Z,71.64
2023-03-03T20:31:15.326Z,71.44
2023-03-03T20:32:15.364Z,71.02
2023-03-03T20:33:15.276Z,70.41
2023-03-03T20:34:15.238Z,70.92
2023-03-03T20:35:15.230Z,70.17
2023-03-03T20:36:15.214Z,71.33
2023-03-03T20:37:15.270Z,70.89
2023-03-03T20:38:15.186Z,69.86
2023-03-03T20:39:15.181Z,69.45
2023-03-03T20:40:15.173Z,69.72
2023-03-03T20:42:15.148Z,68.72
2023-03-03T20:43:15.141Z,68.48
2023-03-03T20:44:15.122Z,68.21
2023-03-03T20:45:15.113Z,68.00
2023-03-03T20:46:15.162Z,68.48
2023-03-03T20:47:15.098Z,67.43
2023-03-03T20:48:15.082Z,66.50
2023-03-03T20:49:15.103Z,66.19
2023-03-03T20:50:15.070Z,66.19
2023-03-03T20:51:15.051Z,66.29
2023-03-03T20:52:15.040Z,66.60
2023-03-03T20:53:15.031Z,66.50
2023-03-03T20:59:14.976Z,65.78
2023-03-03T21:00:14.957Z,65.91
2023-03-03T21:02:14.937Z,65.36
2023-03-03T21:06:14.902Z,63.97
2023-03-03T21:07:14.888Z,64.20
2023-03-03T21:13:14.815Z,65.44
2023-03-03T21:14:14.810Z,65.23
2023-03-03T21:15:14.795Z,65.16
2023-03-03T21:18:14.765Z,65.85
2023-03-03T21:19:14.751Z,64.92
2023-03-03T21:20:14.739Z,64.82
2023-03-03T21:21:14.746Z,64.82
2023-03-03T21:22:14.716Z,64.31
2023-03-03T21:23:14.703Z,64.82
2023-03-03T21:24:14.694Z,64.92
2023-03-03T21:26:14.671Z,64.82
2023-03-03T21:27:14.660Z,65.06
2023-03-03T21:28:14.658Z,65.44
2023-03-03T21:29:14.637Z,64.69
2023-03-03T21:31:14.620Z,64.92
2023-03-03T21:32:14.717Z,64.72
2023-03-03T21:34:14.582Z,64.33
2023-03-03T21:35:14.571Z,65.06
2023-03-03T21:36:14.561Z,65.13
2023-03-03T21:37:14.570Z,64.51
2023-03-03T21:38:14.541Z,64.82
2023-03-03T21:40:14.516Z,64.61
2023-03-03T21:41:14.509Z,64.41
2023-03-03T21:42:14.526Z,64.61
2023-03-03T21:43:14.490Z,64.72
2023-03-03T21:44:14.475Z,64.28
2023-03-03T21:45:14.462Z,63.97
2023-03-03T21:46:14.502Z,64.54
2023-03-03T21:47:14.439Z,64.82
2023-03-03T21:48:14.429Z,64.82
2023-03-03T21:50:14.406Z,65.13
2023-03-03T21:51:14.396Z,64.72
2023-03-03T21:52:14.391Z,64.92
2023-03-03T21:58:14.323Z,64.61
2023-03-03T21:59:14.314Z,65.03
2023-03-03T22:00:14.309Z,65.54
2023-03-03T22:01:14.341Z,66.01
2023-03-03T22:02:14.279Z,66.29
2023-03-03T22:03:14.278Z,66.53
2023-03-03T22:04:14.256Z,66.50
2023-03-03T22:05:14.246Z,65.88
2023-03-03T22:06:14.238Z,66.19
2023-03-03T22:07:14.243Z,66.08
2023-03-03T22:08:14.213Z,66.19
2023-03-03T22:09:14.223Z,66.60
2023-03-03T22:10:14.194Z,66.29
2023-03-03T22:11:15.627Z,66.74
2023-03-03T22:12:14.171Z,67.35
2023-03-03T22:14:14.151Z,67.15
2023-03-03T22:15:14.141Z,67.15
2023-03-03T22:16:14.205Z,66.70
2023-03-03T22:17:14.114Z,66.77
2023-03-03T22:18:14.104Z,66.26
2023-03-03T22:20:14.089Z,66.94
2023-03-03T22:21:14.073Z,67.04
2023-03-03T22:22:14.062Z,66.97
2023-03-03T22:23:14.048Z,67.25
2023-03-03T22:24:14.051Z,66.74
2023-03-03T22:25:14.067Z,66.63
2023-03-03T22:26:14.020Z,66.35
2023-03-03T22:27:14.010Z,66.87
2023-03-03T22:31:13.990Z,66.53
2023-03-03T22:33:13.947Z,65.98
2023-03-03T22:34:13.939Z,65.71
2023-03-03T22:35:13.931Z,66.01
2023-03-03T22:36:13.913Z,66.11
2023-03-03T22:37:13.915Z,66.22
2023-03-03T22:38:13.892Z,66.22
2023-03-03T22:49:13.815Z,66.22
2023-03-03T22:53:13.731Z,66.43
2023-03-03T22:58:13.679Z,66.74
2023-03-03T23:02:13.650Z,67.15
2023-03-03T23:03:13.669Z,66.32
2023-03-03T23:04:13.618Z,66.53
2023-03-03T23:05:13.665Z,66.53
2023-03-03T23:06:13.591Z,65.98
2023-03-03T23:07:13.574Z,66.22
2023-03-03T23:08:13.566Z,66.87
2023-03-03T23:09:13.587Z,67.15
2023-03-03T23:10:13.540Z,66.74
2023-03-03T23:11:13.531Z,66.43
2023-03-03T23:12:13.522Z,66.43
2023-03-03T23:13:13.529Z,66.63
2023-03-03T23:16:13.498Z,65.64
2023-03-03T23:17:13.462Z,65.44
2023-03-03T23:19:13.442Z,66.80
2023-03-03T23:26:13.365Z,66.08
2023-03-03T23:27:13.357Z,65.88
2023-03-03T23:29:13.358Z,66.08
2023-03-03T23:31:13.365Z,66.70
2023-03-03T23:32:13.355Z,67.01
2023-03-03T23:35:13.265Z,65.75
2023-03-03T23:37:13.243Z,65.67
2023-03-03T23:38:13.234Z,66.40
2023-03-03T23:39:13.224Z,67.46
2023-03-03T23:40:13.213Z,66.91
2023-03-03T23:41:13.200Z,66.60
2023-03-03T23:42:13.199Z,66.50
2023-03-03T23:46:13.175Z,66.16
2023-03-03T23:47:13.139Z,66.16
2023-03-03T23:50:13.113Z,66.26
2023-03-03T23:51:13.111Z,66.26
2023-03-03T23:52:13.087Z,66.08
2023-03-03T23:53:13.071Z,66.80
2023-03-03T23:54:13.060Z,67.01
2023-03-03T23:55:13.051Z,66.80
2023-03-03T23:57:13.030Z,66.36
2023-03-03T23:58:13.018Z,66.36
2023-03-03T23:59:13.005Z,66.05
